Time;durP1;ratioP1;P1;durP2;ratioP2;P2;SDS_P1;SDS_P2;PMS_P1;PMS_P2;Temp;Humidity;BMP_temperature;BMP_pressure;BME280_temperature;BME280_humidity;BME280_pressure;Samples;Min_cycle;Max_cycle;Signal;HPM_P1;HPM_P2
2023/03/04 00:00:19;;;;;;;9.57;5.63;;;16.40;59.30;;;;;;5056401;28;20691;-66
2023/03/04 00:03:09;;;;;;;9.25;5.88;;;16.40;59.20;;;;;;5056219;28;20223;-66
2023/03/04 00:05:57;;;;;;;7.30;5.20;;;16.40;59.10;;;;;;5055751;28;20215;-64
2023/03/04 00:08:45;;;;;;;7.68;5.75;;;16.40;59.00;;;;;;5055106;28;20202;-67
2023/03/04 00:11:34;;;;;;;8.70;6.40;;;16.50;58.10;;;;;;5055522;28;20247;-66
2023/03/04 00:14:23;;;;;;;11.30;7.47;;;16.50;57.90;;;;;;5054888;28;20221;-66
2023/03/04 00:17:11;;;;;;;11.20;8.18;;;16.50;58.00;;;;;;5055712;28;20205;-63
2023/03/04 00:20:00;;;;;;;9.18;6.93;;;16.40;57.90;;;;;;5054840;28;20363;-65
2023/03/04 00:22:48;;;;;;;9.57;7.13;;;16.30;57.90;;;;;;5055784;28;20225;-64
2023/03/04 00:25:36;;;;;;;10.20;6.70;;;16.40;58.00;;;;;;5055237;28;20771;-65
2023/03/04 00:28:24;;;;;;;10.30;6.93;;;16.20;57.90;;;;;;5055132;28;20287;-65
2023/03/04 00:31:13;;;;;;;11.63;7.90;;;16.20;58.00;;;;;;5055200;28;20277;-65
2023/03/04 00:34:01;;;;;;;13.13;8.10;;;16.20;58.00;;;;;;5076540;22;20244;-60
2023/03/04 00:36:49;;;;;;;10.63;6.72;;;16.10;57.90;;;;;;5052157;28;20206;-63
2023/03/04 00:39:37;;;;;;;11.52;8.30;;;16.20;58.10;;;;;;5052794;28;20201;-63
2023/03/04 00:42:26;;;;;;;10.68;7.38;;;16.30;75.30;;;;;;5054183;28;20233;-63
2023/03/04 00:45:14;;;;;;;15.25;8.07;;;16.10;58.20;;;;;;5054345;28;20722;-63
2023/03/04 00:48:03;;;;;;;10.15;7.40;;;16.10;58.20;;;;;;5052186;28;20800;-63
2023/03/04 00:50:52;;;;;;;9.02;6.35;;;16.00;58.20;;;;;;5053478;28;20228;-63
2023/03/04 00:53:40;;;;;;;8.95;6.32;;;16.00;58.40;;;;;;5052399;28;20292;-63
2023/03/04 00:56:29;;;;;;;12.32;6.90;;;15.90;58.60;;;;;;5052268;28;20201;-63
2023/03/04 00:59:17;;;;;;;9.45;5.43;;;15.90;58.70;;;;;;5051304;28;20256;-63
2023/03/04 01:02:05;;;;;;;8.38;5.47;;;15.90;59.80;;;;;;5052862;28;20367;-63
2023/03/04 01:04:54;;;;;;;10.23;5.00;;;15.90;59.70;;;;;;5051390;28;20259;-63
2023/03/04 01:07:42;;;;;;;10.65;5.82;;;16.00;59.70;;;;;;5052048;28;20207;-63
2023/03/04 01:10:30;;;;;;;9.27;5.75;;;16.10;59.60;;;;;;5051483;28;20279;-63
2023/03/04 01:13:18;;;;;;;9.20;4.88;;;16.10;59.40;;;;;;5051667;28;20296;-63
2023/03/04 01:16:09;;;;;;;13.32;7.35;;;16.20;59.50;;;;;;5051828;28;20194;-63
2023/03/04 01:18:57;;;;;;;8.82;5.53;;;16.20;59.30;;;;;;5051322;28;20279;-63
2023/03/04 01:21:47;;;;;;;6.50;4.53;;;16.20;59.30;;;;;;5052021;28;20710;-63
2023/03/04 01:24:35;;;;;;;9.70;4.88;;;16.30;59.30;;;;;;5051429;28;20639;-63
2023/03/04 01:27:23;;;;;;;8.73;4.72;;;16.30;59.30;;;;;;5051247;28;20554;-63
2023/03/04 01:30:12;;;;;;;8.98;4.68;;;16.40;59.10;;;;;;5051292;28;20311;-63
2023/03/04 01:33:00;;;;;;;6.13;3.95;;;16.40;59.00;;;;;;5051745;28;20224;-63
2023/03/04 01:35:48;;;;;;;7.50;4.95;;;16.40;58.80;;;;;;5050877;28;20327;-63
2023/03/04 01:38:37;;;;;;;8.70;4.95;;;16.40;58.20;;;;;;5051942;28;20204;-63
2023/03/04 01:41:26;;;;;;;6.10;4.22;;;16.50;58.30;;;;;;5052783;28;20267;-63
2023/03/04 01:44:15;;;;;;;11.15;5.25;;;16.50;58.00;;;;;;5065266;28;20217;-63
2023/03/04 01:47:03;;;;;;;5.07;4.22;;;16.50;58.00;;;;;;5069376;28;20201;-63
2023/03/04 01:49:55;;;;;;;8.18;5.38;;;16.50;58.10;;;;;;5068682;28;20261;-63
2023/03/04 01:52:43;;;;;;;6.60;4.25;;;16.40;58.10;;;;;;5069159;28;20277;-63
2023/03/04 01:55:33;;;;;;;7.35;4.80;;;16.30;58.10;;;;;;5061541;28;20197;-63
2023/03/04 01:58:21;;;;;;;9.45;4.88;;;16.30;58.20;;;;;;5052811;28;20252;-63
2023/03/04 02:01:10;;;;;;;7.03;4.47;;;16.20;58.20;;;;;;5052196;28;20228;-63
2023/03/04 02:03:58;;;;;;;6.15;4.00;;;16.20;58.40;;;;;;5051427;28;20229;-63
2023/03/04 02:06:48;;;;;;;7.82;4.03;;;16.20;58.50;;;;;;5051028;28;20209;-63
2023/03/04 02:09:37;;;;;;;9.15;5.15;;;16.20;58.70;;;;;;5051336;28;20339;-63
2023/03/04 02:12:26;;;;;;;8.05;3.95;;;15.90;69.90;;;;;;5051575;28;20285;-63
2023/03/04 02:15:14;;;;;;;7.63;4.28;;;16.10;58.70;;;;;;5052287;28;20243;-63
2023/03/04 02:18:05;;;;;;;5.03;3.60;;;16.00;58.70;;;;;;5051286;28;20208;-63
2023/03/04 02:21:02;;;;;;;5.60;3.45;;;16.00;58.60;;;;;;5051863;28;20570;-63
2023/03/04 02:23:59;;;;;;;5.93;2.70;;;15.90;58.90;;;;;;5051262;28;20221;-63
2023/03/04 02:26:48;;;;;;;4.10;3.30;;;15.80;59.80;;;;;;5050496;28;20206;-63
2023/03/04 02:29:37;;;;;;;6.93;3.58;;;15.90;60.70;;;;;;5051766;28;20327;-63
2023/03/04 02:32:25;;;;;;;5.30;2.83;;;16.00;71.20;;;;;;5050386;28;20240;-63
2023/03/04 02:35:17;;;;;;;6.18;3.28;;;16.00;59.90;;;;;;5050565;28;20562;-63
2023/03/04 02:38:05;;;;;;;7.82;3.22;;;16.10;59.50;;;;;;5048140;28;20324;-63
2023/03/04 02:40:55;;;;;;;4.72;2.72;;;16.20;59.80;;;;;;5050384;28;20217;-63
2023/03/04 02:43:46;;;;;;;4.75;3.00;;;16.30;59.60;;;;;;5046411;28;20221;-63
2023/03/04 02:46:34;;;;;;;3.35;2.90;;;16.30;59.50;;;;;;5054969;28;20243;-63
2023/03/04 02:49:23;;;;;;;6.60;2.90;;;16.30;59.40;;;;;;5053995;28;20698;-63
2023/03/04 02:52:17;;;;;;;6.55;2.85;;;16.40;59.40;;;;;;5054379;28;20197;-63
2023/03/04 02:55:06;;;;;;;5.15;3.15;;;16.50;59.40;;;;;;5054596;28;20233;-63
2023/03/04 02:57:55;;;;;;;4.07;3.42;;;16.50;59.30;;;;;;5054608;28;20259;-63
2023/03/04 03:00:44;;;;;;;6.22;3.00;;;16.50;59.20;;;;;;5054263;28;20300;-63
2023/03/04 03:03:32;;;;;;;5.30;2.83;;;16.50;59.20;;;;;;5055323;28;20228;-63
2023/03/04 03:06:20;;;;;;;4.63;3.20;;;16.40;59.10;;;;;;5054744;28;20591;-63
2023/03/04 03:09:08;;;;;;;10.43;3.15;;;16.60;59.10;;;;;;5054186;28;20205;-64
2023/03/04 03:11:56;;;;;;;9.63;3.03;;;16.60;58.70;;;;;;5054640;28;20288;-63
2023/03/04 03:14:44;;;;;;;5.93;3.22;;;16.60;58.60;;;;;;5054620;28;20727;-63
2023/03/04 03:17:34;;;;;;;6.75;3.42;;;16.40;58.50;;;;;;5054303;28;20201;-63
2023/03/04 03:20:22;;;;;;;3.53;2.60;;;16.60;58.90;;;;;;5054136;28;20580;-63
2023/03/04 03:23:10;;;;;;;5.35;2.95;;;16.40;58.80;;;;;;5053973;28;20225;-63
2023/03/04 03:25:58;;;;;;;4.13;2.47;;;16.40;59.00;;;;;;5053296;28;20243;-63
2023/03/04 03:28:46;;;;;;;3.47;2.20;;;16.30;58.90;;;;;;5053514;28;20777;-63
2023/03/04 03:31:34;;;;;;;4.20;2.42;;;16.30;59.10;;;;;;5054792;28;20189;-63
2023/03/04 03:34:24;;;;;;;7.50;2.85;;;16.20;59.00;;;;;;5054526;28;20232;-63
2023/03/04 03:37:12;;;;;;;3.42;2.42;;;16.30;59.10;;;;;;5054958;28;20205;-63
2023/03/04 03:40:00;;;;;;;6.15;2.70;;;16.10;59.10;;;;;;5054546;28;20204;-63
2023/03/04 03:42:48;;;;;;;7.70;2.65;;;16.10;59.10;;;;;;5053052;28;20717;-63
2023/03/04 03:45:36;;;;;;;4.55;3.15;;;16.20;59.30;;;;;;5054276;28;20198;-63
2023/03/04 03:48:24;;;;;;;6.93;2.85;;;16.10;59.40;;;;;;5053049;28;20201;-63
2023/03/04 03:51:14;;;;;;;3.83;2.28;;;16.10;59.70;;;;;;5052856;28;20771;-63
2023/03/04 03:54:02;;;;;;;4.88;2.75;;;16.10;59.90;;;;;;5052875;28;20303;-63
2023/03/04 03:56:50;;;;;;;4.20;2.67;;;16.10;59.90;;;;;;5052756;28;20678;-63
2023/03/04 03:59:38;;;;;;;3.22;2.13;;;16.20;60.00;;;;;;5053032;28;20247;-63
2023/03/04 04:02:26;;;;;;;3.70;3.00;;;16.30;76.80;;;;;;5053744;28;20685;-63
2023/03/04 04:05:14;;;;;;;2.47;1.90;;;16.30;60.00;;;;;;5052459;28;20554;-64
2023/03/04 04:08:04;;;;;;;4.28;2.25;;;16.20;59.90;;;;;;5052867;28;20251;-63
2023/03/04 04:10:52;;;;;;;4.35;2.10;;;16.30;59.90;;;;;;5053796;28;20201;-63
2023/03/04 04:13:41;;;;;;;3.95;2.30;;;16.30;59.80;;;;;;5055489;28;20216;-64
2023/03/04 04:16:31;;;;;;;6.60;2.20;;;16.40;59.90;;;;;;5057006;28;20772;-63
2023/03/04 04:19:20;;;;;;;3.25;2.00;;;16.40;59.90;;;;;;5055070;28;20592;-63
2023/03/04 04:22:13;;;;;;;4.10;2.28;;;16.40;59.80;;;;;;5053447;28;20244;-63
2023/03/04 04:25:03;;;;;;;2.72;2.08;;;16.40;59.80;;;;;;5053215;28;20262;-63
2023/03/04 04:27:52;;;;;;;6.30;2.20;;;16.40;59.70;;;;;;5052553;28;20208;-63
2023/03/04 04:30:40;;;;;;;3.08;1.90;;;16.50;59.80;;;;;;5051871;28;20284;-63
2023/03/04 04:33:28;;;;;;;5.65;2.10;;;16.50;59.80;;;;;;5052040;28;20242;-63
2023/03/04 04:36:16;;;;;;;4.10;1.90;;;16.50;59.70;;;;;;5052655;28;20198;-63
2023/03/04 04:39:05;;;;;;;6.00;2.28;;;16.50;59.70;;;;;;5052319;28;20229;-63
2023/03/04 04:41:54;;;;;;;3.30;2.10;;;16.50;59.60;;;;;;5052143;28;20260;-63
2023/03/04 04:44:42;;;;;;;2.58;1.73;;;16.50;59.60;;;;;;5053070;28;20271;-63
2023/03/04 04:47:30;;;;;;;3.13;1.90;;;16.50;59.50;;;;;;5052475;28;20697;-64
2023/03/04 04:50:18;;;;;;;2.50;1.83;;;16.50;59.60;;;;;;5053299;28;20204;-63
2023/03/04 04:53:06;;;;;;;4.93;1.73;;;16.50;59.70;;;;;;5052592;28;20213;-64
2023/03/04 04:55:54;;;;;;;4.40;1.88;;;16.40;59.80;;;;;;5052625;28;20201;-63
2023/03/04 04:58:45;;;;;;;2.95;1.88;;;16.40;59.80;;;;;;5052069;28;20572;-63
2023/03/04 05:01:33;;;;;;;2.75;1.50;;;16.30;59.90;;;;;;5052422;28;20202;-63
2023/03/04 05:04:21;;;;;;;3.10;1.95;;;16.30;60.10;;;;;;5051777;28;20235;-63
2023/03/04 05:07:09;;;;;;;2.80;1.80;;;16.20;60.20;;;;;;5052244;28;20267;-63
2023/03/04 05:09:57;;;;;;;3.65;2.42;;;16.10;60.40;;;;;;5051640;28;20197;-63
2023/03/04 05:12:45;;;;;;;5.03;1.95;;;16.10;60.50;;;;;;5051891;28;20296;-63
2023/03/04 05:15:37;;;;;;;3.58;2.22;;;16.10;60.50;;;;;;5051506;28;20616;-63
2023/03/04 05:18:26;;;;;;;2.53;2.10;;;16.20;60.50;;;;;;5051543;28;20209;-63
2023/03/04 05:21:14;;;;;;;3.83;2.63;;;16.20;60.50;;;;;;5052327;28;20197;-63
2023/03/04 05:24:03;;;;;;;3.20;1.63;;;16.30;60.40;;;;;;5052423;28;20221;-63
2023/03/04 05:26:51;;;;;;;2.72;1.70;;;16.30;60.30;;;;;;5051646;28;20252;-63
2023/03/04 05:29:39;;;;;;;5.00;1.83;;;16.30;61.00;;;;;;5051503;28;20324;-63
2023/03/04 05:32:28;;;;;;;5.75;2.00;;;16.70;71.70;;;;;;5051451;28;20751;-63
2023/03/04 05:35:17;;;;;;;3.30;1.65;;;16.50;60.20;;;;;;5050837;28;20217;-63
2023/03/04 05:38:07;;;;;;;2.53;1.55;;;16.50;60.10;;;;;;5051889;28;20259;-63
2023/03/04 05:40:59;;;;;;;2.08;1.40;;;16.60;60.00;;;;;;5051438;28;20238;-63
2023/03/04 05:43:48;;;;;;;3.80;2.08;;;16.60;59.90;;;;;;5051246;28;20224;-63
2023/03/04 05:46:36;;;;;;;4.90;2.17;;;16.60;59.80;;;;;;5051157;28;20241;-64
2023/03/04 05:49:25;;;;;;;5.80;1.70;;;16.70;59.80;;;;;;5051627;28;20211;-63
2023/03/04 05:52:13;;;;;;;2.85;1.60;;;16.70;59.80;;;;;;5051086;28;20681;-64
2023/03/04 05:55:01;;;;;;;3.20;1.60;;;16.70;59.80;;;;;;5051779;28;20208;-63
2023/03/04 05:57:50;;;;;;;3.20;1.70;;;16.80;59.90;;;;;;5051170;28;20201;-63
2023/03/04 06:00:38;;;;;;;3.47;1.70;;;16.80;59.90;;;;;;5051326;28;20311;-63
2023/03/04 06:03:26;;;;;;;3.38;1.75;;;16.80;59.80;;;;;;5051570;28;20282;-63
2023/03/04 06:06:15;;;;;;;4.05;1.92;;;16.80;59.80;;;;;;5051486;28;20208;-63
2023/03/04 06:09:03;;;;;;;2.55;1.48;;;16.70;59.70;;;;;;5051755;28;20511;-63
2023/03/04 06:11:51;;;;;;;3.47;1.90;;;16.80;59.90;;;;;;5052165;28;20205;-63
2023/03/04 06:14:39;;;;;;;5.97;1.73;;;16.70;60.70;;;;;;5054843;28;20225;-63
2023/03/04 06:17:28;;;;;;;3.55;1.70;;;16.70;60.10;;;;;;5056507;28;20200;-63
2023/03/04 06:20:16;;;;;;;2.90;1.52;;;16.60;60.20;;;;;;5056317;28;20206;-63
2023/03/04 06:23:05;;;;;;;4.25;1.73;;;16.60;60.30;;;;;;5055399;28;20248;-63
2023/03/04 06:25:54;;;;;;;2.67;1.73;;;16.70;60.70;;;;;;5056170;28;20204;-63
2023/03/04 06:28:42;;;;;;;4.10;1.60;;;16.50;60.60;;;;;;5055047;28;20242;-63
2023/03/04 06:31:31;;;;;;;6.45;2.50;;;16.40;60.70;;;;;;5055265;28;20202;-63
2023/03/04 06:34:20;;;;;;;4.93;1.80;;;16.40;60.70;;;;;;5079730;22;20233;-65
2023/03/04 06:37:08;;;;;;;2.65;1.48;;;16.40;60.90;;;;;;5058115;28;20233;-64
2023/03/04 06:39:57;;;;;;;3.00;1.45;;;16.40;60.90;;;;;;5056281;28;20251;-64
2023/03/04 06:42:45;;;;;;;1.50;1.30;;;16.50;73.00;;;;;;5057750;28;20573;-64
2023/03/04 06:45:34;;;;;;;4.93;1.63;;;16.30;61.80;;;;;;5058047;28;20282;-64
2023/03/04 06:48:22;;;;;;;3.38;1.45;;;16.30;61.00;;;;;;5057632;28;20537;-63
2023/03/04 06:51:11;;;;;;;3.40;1.95;;;16.30;61.10;;;;;;5057999;28;20683;-63
2023/03/04 06:53:59;;;;;;;3.33;1.60;;;16.30;61.10;;;;;;5056705;28;20302;-64
2023/03/04 06:56:49;;;;;;;2.38;1.48;;;16.30;61.10;;;;;;5057225;28;20193;-64
2023/03/04 06:59:37;;;;;;;3.05;1.83;;;16.30;61.10;;;;;;5056879;28;20205;-63
2023/03/04 07:02:25;;;;;;;2.40;1.80;;;16.30;61.20;;;;;;5056509;28;20201;-64
2023/03/04 07:05:13;;;;;;;2.70;1.67;;;16.30;61.20;;;;;;5056486;28;20627;-63
2023/03/04 07:08:01;;;;;;;1.90;1.67;;;16.30;61.20;;;;;;5055976;28;20288;-64
2023/03/04 07:10:49;;;;;;;1.83;1.38;;;16.30;61.10;;;;;;5056921;28;20208;-65
2023/03/04 07:13:39;;;;;;;3.35;2.15;;;16.40;61.30;;;;;;5056759;28;20217;-65
2023/03/04 07:16:27;;;;;;;3.67;1.70;;;16.40;61.30;;;;;;5055781;28;20216;-65
2023/03/04 07:19:15;;;;;;;2.17;1.63;;;16.40;61.20;;;;;;5056238;28;20205;-64
2023/03/04 07:22:03;;;;;;;3.28;1.40;;;16.40;61.70;;;;;;5055318;28;20221;-65
2023/03/04 07:24:51;;;;;;;2.22;1.60;;;16.40;61.90;;;;;;5054014;28;20225;-65
2023/03/04 07:27:39;;;;;;;1.98;1.25;;;16.30;61.90;;;;;;5055220;28;20535;-64
2023/03/04 07:30:29;;;;;;;2.25;1.30;;;16.40;62.40;;;;;;5056574;28;20197;-65
2023/03/04 07:33:17;;;;;;;1.83;1.20;;;16.30;61.80;;;;;;5055083;28;20313;-64
2023/03/04 07:36:05;;;;;;;3.65;1.40;;;16.30;62.10;;;;;;5054960;28;20208;-64
2023/03/04 07:38:54;;;;;;;3.00;1.52;;;16.40;62.20;;;;;;5055393;28;20197;-63
2023/03/04 07:41:42;;;;;;;3.80;1.52;;;16.30;62.50;;;;;;5056907;28;20338;-65
2023/03/04 07:44:30;;;;;;;1.23;1.13;;;16.30;63.30;;;;;;5055338;28;20213;-65
2023/03/04 07:47:20;;;;;;;2.42;1.33;;;16.30;62.20;;;;;;5054988;28;20221;-64
2023/03/04 07:50:09;;;;;;;2.35;1.50;;;16.30;62.50;;;;;;5055481;28;20271;-64
2023/03/04 07:52:57;;;;;;;2.10;1.20;;;16.40;79.40;;;;;;5055498;28;20290;-64
2023/03/04 07:55:48;;;;;;;2.22;1.50;;;16.20;62.00;;;;;;5053936;28;20576;-65
2023/03/04 07:58:36;;;;;;;2.88;1.38;;;16.30;61.90;;;;;;5055598;28;20252;-64
2023/03/04 08:01:26;;;;;;;2.38;1.17;;;16.30;61.90;;;;;;5057137;28;20351;-64
2023/03/04 08:04:15;;;;;;;1.73;1.13;;;16.30;61.70;;;;;;5055290;28;20279;-64
2023/03/04 08:07:04;;;;;;;1.48;0.93;;;16.40;62.00;;;;;;5056232;28;20225;-65
2023/03/04 08:09:52;;;;;;;3.67;1.10;;;16.20;61.60;;;;;;5055731;28;20201;-65
2023/03/04 08:12:40;;;;;;;2.85;1.40;;;16.40;61.80;;;;;;5056904;28;20205;-64
2023/03/04 08:15:31;;;;;;;2.97;1.35;;;16.70;62.10;;;;;;5055952;28;20198;-65
2023/03/04 08:18:19;;;;;;;2.10;1.20;;;16.40;61.70;;;;;;5055068;28;20224;-65
2023/03/04 08:21:10;;;;;;;1.77;1.17;;;16.50;61.70;;;;;;5054693;28;20224;-64
2023/03/04 08:24:01;;;;;;;3.90;1.20;;;16.50;62.00;;;;;;5054054;28;20358;-65
2023/03/04 08:26:50;;;;;;;1.77;1.20;;;16.60;61.70;;;;;;5054153;28;20201;-66
2023/03/04 08:29:38;;;;;;;2.58;1.50;;;16.60;61.70;;;;;;5054992;28;20281;-65
2023/03/04 08:32:26;;;;;;;2.47;1.48;;;16.60;62.20;;;;;;5054229;28;20248;-64
2023/03/04 08:35:14;;;;;;;3.65;1.30;;;16.60;62.00;;;;;;5053114;28;20200;-64
2023/03/04 08:38:04;;;;;;;1.85;1.40;;;16.70;62.10;;;;;;5054483;28;20233;-65
2023/03/04 08:40:53;;;;;;;3.35;1.30;;;16.60;62.00;;;;;;5054060;28;20202;-64
2023/03/04 08:43:41;;;;;;;1.90;1.20;;;16.60;62.30;;;;;;5054182;28;20222;-65
2023/03/04 08:46:29;;;;;;;3.05;1.70;;;16.60;62.60;;;;;;5053960;28;20267;-65
2023/03/04 08:49:18;;;;;;;2.03;1.15;;;16.50;62.60;;;;;;5054039;28;20279;-64
2023/03/04 08:52:06;;;;;;;1.60;1.50;;;16.50;62.80;;;;;;5054069;28;20259;-65
2023/03/04 08:54:55;;;;;;;3.20;1.40;;;16.10;62.60;;;;;;5054223;28;20496;-66
2023/03/04 08:57:43;;;;;;;3.05;1.33;;;16.40;63.10;;;;;;5055602;28;20255;-65
2023/03/04 09:00:31;;;;;;;3.22;1.10;;;16.30;63.10;;;;;;5054381;28;20584;-64
2023/03/04 09:03:20;;;;;;;1.33;1.20;;;16.30;63.00;;;;;;5054905;28;20213;-64
2023/03/04 09:06:10;;;;;;;1.88;1.77;;;16.20;62.40;;;;;;5053796;28;20217;-64
2023/03/04 09:08:58;;;;;;;1.10;1.00;;;16.20;62.30;;;;;;5054869;28;20205;-65
2023/03/04 09:11:47;;;;;;;2.85;1.30;;;16.20;62.30;;;;;;5054334;28;20335;-66
2023/03/04 09:14:35;;;;;;;2.75;1.27;;;16.30;62.40;;;;;;5054321;28;20294;-65
2023/03/04 09:17:23;;;;;;;1.25;1.00;;;16.20;62.00;;;;;;5053743;28;20247;-65
2023/03/04 09:20:13;;;;;;;2.40;1.10;;;16.40;62.20;;;;;;5054033;28;20693;-64
2023/03/04 09:23:01;;;;;;;1.73;1.00;;;16.30;78.90;;;;;;5053771;28;20201;-65
2023/03/04 09:25:49;;;;;;;2.25;1.10;;;16.60;62.70;;;;;;5053789;28;20244;-65
2023/03/04 09:28:38;;;;;;;1.65;1.00;;;16.60;61.90;;;;;;5053745;28;20597;-64
2023/03/04 09:31:28;;;;;;;1.38;1.13;;;16.60;61.70;;;;;;5053910;28;20290;-65
2023/03/04 09:34:16;;;;;;;2.67;1.30;;;16.70;61.60;;;;;;5054481;28;20659;-65
2023/03/04 09:37:04;;;;;;;2.50;1.20;;;16.80;61.60;;;;;;5053478;28;20559;-66
2023/03/04 09:39:52;;;;;;;1.10;1.00;;;16.90;61.60;;;;;;5054183;28;20225;-64
2023/03/04 09:42:45;;;;;;;1.35;1.08;;;16.90;61.50;;;;;;5053357;28;20247;-64
2023/03/04 09:45:41;;;;;;;3.60;1.30;;;16.90;61.40;;;;;;5052930;28;20221;-64
2023/03/04 09:48:39;;;;;;;2.78;1.10;;;16.90;61.30;;;;;;5053363;28;20618;-64
2023/03/04 09:51:42;;;;;;;1.20;1.10;;;16.90;61.30;;;;;;5052368;28;20651;-64
2023/03/04 09:54:52;;;;;;;3.30;1.10;;;16.90;61.20;;;;;;5052738;28;20225;-65
2023/03/04 09:57:46;;;;;;;1.45;1.10;;;16.90;61.20;;;;;;5052846;28;20286;-65
2023/03/04 10:00:41;;;;;;;3.80;1.38;;;16.90;61.30;;;;;;5053102;28;20217;-65
2023/03/04 10:03:39;;;;;;;1.60;1.20;;;17.00;61.20;;;;;;5052601;28;20221;-66
2023/03/04 10:06:28;;;;;;;2.15;1.30;;;17.00;61.30;;;;;;5052238;28;20221;-66
2023/03/04 10:09:20;;;;;;;3.58;1.40;;;17.00;61.30;;;;;;5052184;28;20774;-64
2023/03/04 10:12:13;;;;;;;2.25;1.45;;;16.90;61.20;;;;;;5052478;28;20263;-65
2023/03/04 10:15:04;;;;;;;1.40;1.30;;;16.90;61.30;;;;;;5051629;28;20685;-66
2023/03/04 10:17:59;;;;;;;2.90;1.30;;;16.80;61.10;;;;;;5051855;28;20205;-65
2023/03/04 10:20:53;;;;;;;2.13;1.30;;;16.90;61.20;;;;;;5051708;28;20240;-65
2023/03/04 10:23:41;;;;;;;2.10;1.30;;;16.90;61.20;;;;;;5052751;28;20230;-66
2023/03/04 10:26:31;;;;;;;3.85;1.50;;;16.90;61.20;;;;;;5051465;28;20221;-66
2023/03/04 10:29:23;;;;;;;1.85;1.58;;;16.80;61.20;;;;;;5052548;28;20279;-65
2023/03/04 10:32:15;;;;;;;2.78;1.05;;;16.80;61.30;;;;;;5052107;28;20202;-66
2023/03/04 10:35:11;;;;;;;3.05;1.50;;;16.70;61.20;;;;;;5052418;28;20625;-66
2023/03/04 10:38:03;;;;;;;3.70;1.70;;;16.70;61.30;;;;;;5053522;28;20229;-65
2023/03/04 10:40:51;;;;;;;2.58;1.40;;;16.60;61.10;;;;;;5053507;28;20280;-66
2023/03/04 10:43:39;;;;;;;3.35;1.10;;;16.50;61.00;;;;;;5051462;28;20293;-65
2023/03/04 10:46:28;;;;;;;2.75;0.90;;;16.40;61.40;;;;;;5051814;28;20279;-66
2023/03/04 10:49:18;;;;;;;3.42;1.02;;;16.40;61.90;;;;;;5052155;28;20205;-66
2023/03/04 10:52:23;;;;;;;2.85;1.20;;;16.40;61.60;;;;;;5052737;28;20220;-64
2023/03/04 10:55:16;;;;;;;1.20;1.00;;;16.40;61.80;;;;;;5051903;28;20202;-66
2023/03/04 10:58:06;;;;;;;3.03;1.23;;;16.40;61.90;;;;;;5053151;28;20213;-66
2023/03/04 11:01:02;;;;;;;1.17;0.80;;;16.40;61.70;;;;;;5055948;28;20255;-65
2023/03/04 11:03:53;;;;;;;3.97;1.52;;;16.40;61.40;;;;;;5056052;28;20221;-66
2023/03/04 11:06:41;;;;;;;6.40;1.33;;;16.40;61.30;;;;;;5056194;28;20217;-66
2023/03/04 11:09:31;;;;;;;3.42;1.35;;;16.40;61.20;;;;;;5056185;28;20697;-64
2023/03/04 11:12:22;;;;;;;3.88;1.40;;;16.00;60.90;;;;;;5055998;28;20284;-66
2023/03/04 11:15:19;;;;;;;4.03;1.17;;;16.50;61.40;;;;;;5054890;28;20201;-66
2023/03/04 11:18:12;;;;;;;4.28;1.30;;;16.50;61.10;;;;;;5055662;28;20204;-66
2023/03/04 11:21:01;;;;;;;2.97;1.30;;;16.50;61.00;;;;;;5055454;28;20692;-65
2023/03/04 11:23:53;;;;;;;6.32;1.55;;;16.50;60.30;;;;;;5054909;28;20269;-66
2023/03/04 11:26:46;;;;;;;2.63;1.60;;;16.50;60.30;;;;;;5055633;28;20270;-66
2023/03/04 11:29:42;;;;;;;5.18;1.80;;;16.60;60.60;;;;;;5055247;28;20286;-66
2023/03/04 11:32:36;;;;;;;4.10;1.55;;;16.60;60.00;;;;;;5054812;28;20201;-65
2023/03/04 11:35:29;;;;;;;3.65;1.75;;;16.70;59.40;;;;;;5055248;28;20197;-67
2023/03/04 11:38:20;;;;;;;4.93;2.03;;;16.60;59.70;;;;;;5055095;28;20202;-66
2023/03/04 11:41:13;;;;;;;5.65;1.70;;;16.60;59.30;;;;;;5055269;28;20792;-65
2023/03/04 11:44:05;;;;;;;6.38;2.10;;;16.60;58.80;;;;;;5054902;28;20304;-64
2023/03/04 11:47:15;;;;;;;4.70;2.30;;;16.60;58.50;;;;;;5053933;28;20271;-65
2023/03/04 11:50:20;;;;;;;5.80;2.00;;;16.50;58.50;;;;;;5055536;28;20626;-67
2023/03/04 11:53:27;;;;;;;6.55;2.30;;;16.40;58.70;;;;;;5054646;28;20249;-66
2023/03/04 11:56:26;;;;;;;5.22;1.83;;;16.40;58.80;;;;;;5055058;28;20221;-65
2023/03/04 11:59:26;;;;;;;3.70;1.65;;;16.30;59.10;;;;;;5034990;28;20256;-65
2023/03/04 12:02:18;;;;;;;4.38;1.30;;;16.30;60.50;;;;;;5034896;28;20206;-65
2023/03/04 12:05:25;;;;;;;2.65;1.38;;;16.30;60.90;;;;;;5035962;28;20237;-65
2023/03/04 12:08:28;;;;;;;3.92;1.50;;;16.30;61.10;;;;;;5036017;28;20197;-64
2023/03/04 12:11:24;;;;;;;4.90;1.65;;;16.30;60.50;;;;;;5034545;28;20643;-66
2023/03/04 12:14:27;;;;;;;5.88;1.35;;;16.40;60.80;;;;;;5034867;28;20301;-66
2023/03/04 12:17:32;;;;;;;3.30;1.17;;;16.40;60.70;;;;;;5034316;28;20229;-64
2023/03/04 12:20:38;;;;;;;3.50;1.13;;;16.40;60.60;;;;;;5035112;28;20367;-66
2023/03/04 12:23:51;;;;;;;2.33;1.15;;;16.50;60.30;;;;;;5035339;28;20214;-69
2023/03/04 12:26:44;;;;;;;4.20;1.45;;;16.60;59.60;;;;;;5034053;28;20218;-64
2023/03/04 12:29:39;;;;;;;1.35;1.20;;;16.60;60.10;;;;;;5034971;28;20206;-66
2023/03/04 12:32:34;;;;;;;4.43;1.60;;;16.60;60.10;;;;;;5034216;28;20748;-64
2023/03/04 12:35:33;;;;;;;5.22;1.48;;;16.70;59.80;;;;;;5047838;23;20287;-60
2023/03/04 12:38:37;;;;;;;3.30;1.30;;;16.70;59.80;;;;;;5034587;28;20689;-60
2023/03/04 12:41:46;;;;;;;3.72;1.30;;;16.70;59.50;;;;;;5035812;28;20596;-59
2023/03/04 12:44:40;;;;;;;2.08;1.20;;;16.70;59.60;;;;;;5033865;28;20222;-59
2023/03/04 12:47:37;;;;;;;5.90;1.80;;;16.70;59.90;;;;;;5034056;28;20249;-60
2023/03/04 12:50:31;;;;;;;2.80;1.35;;;16.80;59.70;;;;;;5034241;28;20284;-61
2023/03/04 12:53:29;;;;;;;6.63;1.60;;;16.80;70.10;;;;;;5034014;28;20198;-61
2023/03/04 12:56:24;;;;;;;4.90;1.98;;;16.80;58.80;;;;;;5032753;28;20283;-61
2023/03/04 12:59:16;;;;;;;3.40;1.23;;;16.80;58.60;;;;;;5033476;28;20241;-60
2023/03/04 13:02:26;;;;;;;3.15;1.42;;;16.80;58.10;;;;;;5034531;28;20589;-60
2023/03/04 13:05:39;;;;;;;4.20;1.98;;;16.80;57.40;;;;;;5033845;28;20218;-60
2023/03/04 13:08:36;;;;;;;3.08;1.33;;;16.70;58.60;;;;;;5033541;28;20252;-60
2023/03/04 13:11:46;;;;;;;4.07;1.33;;;16.70;58.80;;;;;;5045823;28;20225;-61
2023/03/04 13:14:34;;;;;;;4.43;1.35;;;16.80;58.80;;;;;;5035401;28;20273;-60
2023/03/04 13:17:40;;;;;;;4.38;1.50;;;16.80;58.20;;;;;;5033972;28;20213;-60
2023/03/04 13:20:37;;;;;;;1.30;0.90;;;16.70;59.20;;;;;;5034874;28;20772;-60
2023/03/04 13:23:30;;;;;;;5.53;1.17;;;16.50;74.00;;;;;;5033663;28;20587;-60
2023/03/04 13:26:27;;;;;;;4.72;1.02;;;16.50;57.60;;;;;;5041720;28;20229;-62
2023/03/04 13:29:35;;;;;;;3.50;1.35;;;16.60;57.90;;;;;;5051134;28;20262;-61
2023/03/04 13:32:37;;;;;;;2.50;1.10;;;16.50;59.60;;;;;;5051407;28;20202;-61
2023/03/04 13:35:49;;;;;;;4.93;1.55;;;16.50;59.70;;;;;;5046027;28;20284;-60
2023/03/04 13:38:38;;;;;;;4.68;1.55;;;16.50;60.00;;;;;;5039266;28;20203;-60
2023/03/04 13:41:31;;;;;;;5.30;1.52;;;16.50;59.90;;;;;;5035165;28;20543;-61
2023/03/04 13:45:00;;;;;;;4.65;1.30;;;16.50;59.90;;;;;;5035038;28;20299;-60
2023/03/04 13:47:49;;;;;;;4.25;1.40;;;16.60;59.90;;;;;;5033196;28;20217;-61
2023/03/04 13:50:41;;;;;;;3.00;1.02;;;16.60;59.70;;;;;;5034223;28;20686;-60
2023/03/04 13:53:42;;;;;;;3.45;1.55;;;17.00;77.10;;;;;;5034745;28;20284;-61
2023/03/04 13:56:33;;;;;;;3.25;1.00;;;16.60;59.70;;;;;;5036453;28;20239;-60
2023/03/04 13:59:28;;;;;;;4.65;2.03;;;16.70;59.90;;;;;;5053933;28;20211;-60
2023/03/04 14:02:18;;;;;;;3.17;1.40;;;16.70;59.90;;;;;;5054420;28;20212;-60
2023/03/04 14:05:11;;;;;;;1.95;0.93;;;16.60;59.90;;;;;;5052730;28;20236;-60
2023/03/04 14:08:17;;;;;;;3.58;1.20;;;16.70;60.00;;;;;;5053475;28;20655;-62
2023/03/04 14:11:12;;;;;;;6.55;1.63;;;16.70;59.30;;;;;;5052812;28;20247;-60
2023/03/04 14:14:05;;;;;;;3.28;1.40;;;16.80;58.80;;;;;;5052596;28;20271;-60
2023/03/04 14:16:57;;;;;;;4.10;1.25;;;16.80;58.80;;;;;;5052115;28;20201;-61
2023/03/04 14:19:46;;;;;;;3.38;1.33;;;16.70;58.90;;;;;;5051903;28;20738;-60
2023/03/04 14:22:39;;;;;;;3.55;1.60;;;16.80;58.50;;;;;;5051141;28;20232;-61
2023/03/04 14:25:28;;;;;;;4.28;1.27;;;16.90;58.30;;;;;;5052559;28;20217;-60
2023/03/04 14:28:20;;;;;;;4.13;1.42;;;16.90;58.40;;;;;;5059217;28;20302;-60
2023/03/04 14:31:16;;;;;;;3.50;1.30;;;16.80;57.90;;;;;;5058395;28;20205;-60
2023/03/04 14:34:04;;;;;;;3.83;1.35;;;16.80;57.50;;;;;;5056782;28;20235;-60
2023/03/04 14:36:53;;;;;;;3.80;1.80;;;16.70;57.50;;;;;;5057228;28;20198;-60
2023/03/04 14:39:43;;;;;;;4.10;1.60;;;16.60;57.50;;;;;;5056002;28;20284;-60
2023/03/04 14:42:39;;;;;;;4.47;1.98;;;16.80;58.10;;;;;;5056362;28;20229;-60
2023/03/04 14:45:29;;;;;;;3.13;1.27;;;16.50;57.50;;;;;;5055695;28;20225;-60
2023/03/04 14:48:21;;;;;;;1.88;1.38;;;16.50;57.70;;;;;;5057553;28;20351;-60